createdAt,value
2018-05-27T00:00:46.910Z,14.60
2018-05-27T00:03:56.246Z,14.40
2018-05-27T00:07:00.188Z,14.30
2018-05-27T00:10:03.429Z,14.40
2018-05-27T00:13:06.651Z,14.40
2018-05-27T00:16:12.275Z,14.40
2018-05-27T00:19:15.530Z,14.50
2018-05-27T00:22:18.851Z,14.50
2018-05-27T00:25:22.042Z,14.50
2018-05-27T00:28:28.513Z,14.40
2018-05-27T00:31:32.412Z,14.50
2018-05-27T00:34:35.703Z,14.40
2018-05-27T00:37:39.736Z,14.10
2018-05-27T00:40:42.931Z,14.10
2018-05-27T00:43:46.144Z,14.20
2018-05-27T00:46:49.350Z,14.10
2018-05-27T00:49:52.604Z,14.00
2018-05-27T00:52:56.976Z,14.00
2018-05-27T00:56:00.450Z,13.90
2018-05-27T00:59:03.700Z,13.80
2018-05-27T01:02:06.880Z,13.80
2018-05-27T01:05:10.165Z,13.60
2018-05-27T01:08:13.324Z,13.60
2018-05-27T01:11:16.562Z,13.60
2018-05-27T01:14:19.741Z,13.50
2018-05-27T01:17:23.774Z,13.50
2018-05-27T01:20:26.994Z,13.50
2018-05-27T01:23:30.242Z,13.50
2018-05-27T01:26:33.884Z,13.60
2018-05-27T01:29:37.073Z,13.50
2018-05-27T01:32:41.910Z,13.50
2018-05-27T01:35:45.082Z,13.50
2018-05-27T01:38:48.490Z,13.60
2018-05-27T01:41:52.502Z,13.50
2018-05-27T01:44:56.008Z,13.50
2018-05-27T01:48:00.007Z,13.50
2018-05-27T01:51:03.307Z,13.50
2018-05-27T01:54:06.543Z,13.30
2018-05-27T01:57:09.756Z,13.40
2018-05-27T02:00:12.977Z,13.40
2018-05-27T02:03:16.142Z,13.40
2018-05-27T02:06:19.369Z,13.40
2018-05-27T02:09:22.594Z,13.50
2018-05-27T02:12:27.783Z,13.50
2018-05-27T02:15:30.952Z,13.50
2018-05-27T02:18:34.165Z,13.30
2018-05-27T02:21:38.010Z,13.20
2018-05-27T02:24:41.336Z,13.10
2018-05-27T02:27:45.311Z,12.90
2018-05-27T02:30:48.514Z,12.90
2018-05-27T02:33:51.699Z,13.00
2018-05-27T02:36:55.068Z,13.20
2018-05-27T02:39:59.728Z,13.10
2018-05-27T02:43:02.942Z,13.10
2018-05-27T02:46:06.160Z,13.10
2018-05-27T02:49:11.416Z,12.90
2018-05-27T02:52:14.655Z,12.90
2018-05-27T02:55:17.851Z,12.70
2018-05-27T02:58:21.025Z,12.70
2018-05-27T03:01:24.672Z,12.70
2018-05-27T03:04:28.639Z,12.90
2018-05-27T03:07:31.884Z,12.80
2018-05-27T03:10:35.103Z,12.70
2018-05-27T03:13:38.386Z,12.90
2018-05-27T03:16:41.664Z,12.80
2018-05-27T03:19:45.357Z,12.70
2018-05-27T03:22:48.605Z,12.70
2018-05-27T03:25:51.803Z,12.70
2018-05-27T03:28:55.345Z,12.70
2018-05-27T03:31:59.101Z,12.80
2018-05-27T03:35:03.203Z,12.90
2018-05-27T03:38:07.210Z,12.80
2018-05-27T03:41:10.396Z,12.70
2018-05-27T03:44:13.740Z,12.90
2018-05-27T03:47:17.653Z,12.90
2018-05-27T03:50:20.876Z,12.90
2018-05-27T03:53:25.176Z,12.80
2018-05-27T03:56:28.788Z,12.80
2018-05-27T03:59:32.018Z,12.70
2018-05-27T04:02:35.225Z,12.50
2018-05-27T04:05:51.112Z,12.60
2018-05-27T04:08:54.844Z,12.60
2018-05-27T04:11:59.034Z,12.60
2018-05-27T04:15:03.020Z,12.80
2018-05-27T04:18:06.297Z,12.80
2018-05-27T04:21:09.760Z,12.90
2018-05-27T04:24:13.705Z,13.20
2018-05-27T04:27:16.902Z,13.10
2018-05-27T04:30:20.141Z,13.30
2018-05-27T04:33:24.144Z,13.40
2018-05-27T04:36:27.911Z,13.40
2018-05-27T04:39:31.185Z,13.70
2018-05-27T04:42:34.386Z,14.00
2018-05-27T04:48:48.038Z,14.10
2018-05-27T04:51:51.305Z,14.10
2018-05-27T04:54:55.817Z,14.20
2018-05-27T04:57:59.145Z,14.30
2018-05-27T05:01:02.376Z,14.30
2018-05-27T05:04:06.223Z,14.50
2018-05-27T05:07:09.456Z,14.60
2018-05-27T05:10:13.413Z,14.40
2018-05-27T05:13:16.589Z,14.40
2018-05-27T05:16:19.810Z,14.50
2018-05-27T05:19:23.111Z,14.50
2018-05-27T05:22:26.435Z,14.60
2018-05-27T05:25:30.689Z,15.00
2018-05-27T05:28:33.914Z,15.00
2018-05-27T05:31:37.696Z,15.20
2018-05-27T05:34:40.975Z,15.30
2018-05-27T05:37:44.272Z,15.50
2018-05-27T05:40:47.472Z,15.80
2018-05-27T05:43:50.663Z,16.10
2018-05-27T05:46:54.225Z,16.60
2018-05-27T05:49:57.455Z,16.90
2018-05-27T05:53:02.425Z,17.40
2018-05-27T05:56:06.020Z,17.40
2018-05-27T05:59:09.211Z,18.00
2018-05-27T06:02:12.398Z,18.40
2018-05-27T06:05:15.593Z,19.10
2018-05-27T06:08:18.920Z,19.40
2018-05-27T06:11:22.115Z,19.80
2018-05-27T06:14:25.290Z,21.40
2018-05-27T06:17:29.025Z,22.00
2018-05-27T06:20:32.250Z,22.30
2018-05-27T06:23:35.525Z,23.50
2018-05-27T06:26:39.625Z,23.30
2018-05-27T06:29:43.104Z,23.30
2018-05-27T06:32:46.331Z,22.50
2018-05-27T06:35:49.522Z,22.40
2018-05-27T06:38:52.711Z,22.30
2018-05-27T06:41:56.295Z,21.90
2018-05-27T06:44:59.528Z,22.00
2018-05-27T06:48:02.816Z,21.80
2018-05-27T06:51:06.007Z,21.40
2018-05-27T06:54:09.209Z,21.40
2018-05-27T06:57:13.086Z,20.80
2018-05-27T07:00:17.250Z,20.50
2018-05-27T07:03:20.509Z,21.00
2018-05-27T07:06:23.681Z,22.90
2018-05-27T07:09:28.129Z,25.10
2018-05-27T07:12:31.371Z,25.10
2018-05-27T07:15:34.566Z,26.40
2018-05-27T07:18:37.841Z,26.60
2018-05-27T07:21:41.884Z,28.00
2018-05-27T07:24:45.070Z,27.90
2018-05-27T07:27:49.260Z,28.50
2018-05-27T07:30:52.438Z,28.40
2018-05-27T07:33:55.654Z,28.70
2018-05-27T07:36:59.277Z,28.30
2018-05-27T07:40:02.536Z,27.30
2018-05-27T07:43:06.471Z,28.20
2018-05-27T07:46:10.511Z,29.30
2018-05-27T07:49:13.800Z,29.30
2018-05-27T07:52:17.157Z,30.10
2018-05-27T07:55:21.480Z,29.30
2018-05-27T07:58:25.681Z,28.40
2018-05-27T08:01:29.919Z,27.70
2018-05-27T08:04:34.072Z,27.60
2018-05-27T08:07:37.428Z,29.10
2018-05-27T08:10:40.761Z,29.80
2018-05-27T08:13:43.988Z,29.00
2018-05-27T08:16:48.348Z,28.30
2018-05-27T08:19:51.612Z,27.50
2018-05-27T08:22:54.811Z,27.20
2018-05-27T08:25:58.370Z,27.70
2018-05-27T08:29:01.670Z,27.60
2018-05-27T08:32:04.865Z,27.30
2018-05-27T08:35:08.178Z,27.40
2018-05-27T08:38:11.341Z,27.40
2018-05-27T08:41:14.841Z,26.80
2018-05-27T08:44:18.013Z,27.20
2018-05-27T08:47:21.553Z,27.30
2018-05-27T08:50:24.749Z,27.40
2018-05-27T08:53:28.491Z,27.90
2018-05-27T08:56:31.741Z,26.80
2018-05-27T08:59:35.781Z,27.40
2018-05-27T09:02:39.752Z,27.90
2018-05-27T09:05:43.014Z,27.80
2018-05-27T09:08:46.271Z,28.10
2018-05-27T09:11:49.554Z,28.30
2018-05-27T09:14:54.532Z,29.40
2018-05-27T09:17:58.141Z,29.40
2018-05-27T09:21:01.670Z,28.60
2018-05-27T09:24:05.132Z,28.80
2018-05-27T09:27:10.352Z,29.30
2018-05-27T09:30:13.875Z,28.80
2018-05-27T09:33:17.152Z,28.20
2018-05-27T09:36:21.100Z,28.60
2018-05-27T09:39:24.297Z,28.60
2018-05-27T09:42:27.741Z,28.20
2018-05-27T09:45:31.260Z,28.60
2018-05-27T09:48:34.576Z,28.90
2018-05-27T09:51:37.828Z,28.80
2018-05-27T09:54:41.921Z,28.50
2018-05-27T09:57:45.177Z,28.20
2018-05-27T10:00:49.157Z,28.10
2018-05-27T10:03:52.362Z,28.10
2018-05-27T10:06:56.766Z,27.70
2018-05-27T10:10:00.211Z,27.60
2018-05-27T10:13:03.434Z,27.00
2018-05-27T10:16:06.921Z,27.70
2018-05-27T10:19:10.262Z,28.30
2018-05-27T10:22:14.330Z,28.80
2018-05-27T10:25:17.548Z,28.80
2018-05-27T10:28:20.970Z,28.70
2018-05-27T10:31:24.145Z,28.40
2018-05-27T10:34:27.657Z,28.20
2018-05-27T10:37:30.987Z,28.60
2018-05-27T10:40:34.222Z,28.50
2018-05-27T10:43:37.537Z,28.70
2018-05-27T10:46:41.122Z,28.50
2018-05-27T10:49:44.480Z,29.00
2018-05-27T10:52:47.702Z,28.70
2018-05-27T10:55:57.757Z,28.10
2018-05-27T10:59:01.668Z,27.70
2018-05-27T11:02:04.907Z,28.40
2018-05-27T11:05:08.933Z,27.30
2018-05-27T11:08:12.136Z,27.30
2018-05-27T11:11:15.602Z,27.50
2018-05-27T11:14:18.804Z,27.10
2018-05-27T11:17:22.007Z,27.90
2018-05-27T11:20:25.214Z,27.70
2018-05-27T11:23:30.201Z,27.40
2018-05-27T11:26:33.463Z,27.40
2018-05-27T11:29:36.711Z,27.00
2018-05-27T11:32:41.806Z,26.90
2018-05-27T11:35:45.051Z,26.80
2018-05-27T11:38:49.162Z,26.90
2018-05-27T11:41:52.414Z,26.60
2018-05-27T11:44:55.653Z,26.60
2018-05-27T11:48:00.097Z,26.70
2018-05-27T11:51:03.422Z,26.40
2018-05-27T11:54:06.881Z,25.70
2018-05-27T11:57:10.293Z,25.50
2018-05-27T12:00:14.270Z,25.30
2018-05-27T12:03:17.792Z,25.30
2018-05-27T12:06:21.164Z,25.10
2018-05-27T12:09:24.569Z,25.10
2018-05-27T12:12:28.608Z,25.40
2018-05-27T12:15:32.112Z,25.40
2018-05-27T12:18:36.313Z,25.70
2018-05-27T12:21:39.547Z,25.50
2018-05-27T12:24:43.797Z,25.40
2018-05-27T12:27:47.039Z,25.40
2018-05-27T12:30:51.038Z,25.20
2018-05-27T12:33:54.294Z,25.20
2018-05-27T12:36:58.713Z,25.20
2018-05-27T12:40:02.760Z,25.20
2018-05-27T12:43:06.002Z,25.20
2018-05-27T12:46:10.023Z,25.60
2018-05-27T12:49:13.282Z,25.50
2018-05-27T12:52:16.716Z,25.50
2018-05-27T12:55:20.076Z,25.40
2018-05-27T12:58:23.372Z,25.40
2018-05-27T13:01:26.563Z,25.30
2018-05-27T13:04:30.239Z,25.50
2018-05-27T13:07:33.513Z,25.80
2018-05-27T13:10:37.563Z,25.70
2018-05-27T13:13:40.907Z,25.70
2018-05-27T13:16:44.196Z,25.50
2018-05-27T13:19:47.458Z,25.70
2018-05-27T13:22:50.699Z,25.80
2018-05-27T13:25:54.011Z,25.70
2018-05-27T13:28:57.228Z,25.80
2018-05-27T13:32:00.957Z,26.00
2018-05-27T13:35:04.177Z,26.00
2018-05-27T13:38:10.208Z,26.10
2018-05-27T13:41:13.473Z,26.10
2018-05-27T13:44:16.737Z,26.10
2018-05-27T13:47:20.781Z,25.50
2018-05-27T13:50:24.058Z,25.50
2018-05-27T13:53:27.328Z,25.20
2018-05-27T13:56:32.421Z,25.00
2018-05-27T13:59:35.620Z,24.90
2018-05-27T14:02:39.341Z,24.70
2018-05-27T14:05:42.559Z,24.60
2018-05-27T14:08:47.352Z,24.20
2018-05-27T14:11:50.706Z,24.20
2018-05-27T14:14:54.116Z,23.80
2018-05-27T14:17:57.317Z,23.50
2018-05-27T14:21:01.622Z,22.40
2018-05-27T14:24:04.933Z,22.30
2018-05-27T14:27:08.191Z,21.80
2018-05-27T14:30:11.458Z,21.50
2018-05-27T14:33:14.638Z,21.10
2018-05-27T14:36:19.222Z,20.80
2018-05-27T14:39:22.940Z,20.50
2018-05-27T14:42:28.095Z,20.40
2018-05-27T14:45:31.394Z,20.40
2018-05-27T14:48:34.698Z,20.60
2018-05-27T14:55:10.742Z,20.90
2018-05-27T14:58:23.091Z,20.90
2018-05-27T15:01:27.055Z,20.70
2018-05-27T15:04:30.227Z,20.70
2018-05-27T15:07:35.100Z,20.70
2018-05-27T15:10:38.407Z,20.60
2018-05-27T15:13:41.642Z,20.60
2018-05-27T15:16:45.839Z,20.60
2018-05-27T15:19:49.033Z,20.60
2018-05-27T15:22:53.354Z,20.60
2018-05-27T15:25:57.376Z,20.70
2018-05-27T15:29:03.156Z,20.70
2018-05-27T15:32:28.393Z,20.60
2018-05-27T15:35:36.641Z,20.60
2018-05-27T15:38:40.638Z,20.60
2018-05-27T15:41:43.902Z,20.60
2018-05-27T15:44:47.236Z,20.70
2018-05-27T15:47:50.411Z,20.60
2018-05-27T15:50:55.241Z,20.60
2018-05-27T15:53:59.552Z,20.60
2018-05-27T15:57:03.085Z,20.60
2018-05-27T16:00:07.062Z,20.50
2018-05-27T16:03:10.301Z,20.50
2018-05-27T16:06:14.384Z,20.40
2018-05-27T16:09:18.492Z,20.30
2018-05-27T16:12:21.779Z,20.20
2018-05-27T16:15:26.183Z,20.10
2018-05-27T16:18:29.392Z,20.00
2018-05-27T16:21:32.908Z,20.00
2018-05-27T16:24:36.242Z,19.90
2018-05-27T16:27:40.226Z,19.90
2018-05-27T16:30:45.729Z,19.90
2018-05-27T16:33:49.367Z,20.00
2018-05-27T16:36:53.572Z,19.80
2018-05-27T16:39:57.196Z,19.70
2018-05-27T16:43:13.924Z,19.50
2018-05-27T16:46:20.801Z,19.10
2018-05-27T16:49:26.085Z,19.00
2018-05-27T16:55:59.469Z,19.00
2018-05-27T16:59:02.868Z,19.00
2018-05-27T17:02:09.747Z,18.90
2018-05-27T17:05:13.092Z,19.10
2018-05-27T17:08:16.621Z,18.90
2018-05-27T17:11:19.883Z,18.80
2018-05-27T17:14:27.463Z,18.50
2018-05-27T17:17:30.934Z,18.50
2018-05-27T17:20:34.242Z,18.40
2018-05-27T17:23:38.266Z,18.30
2018-05-27T17:26:58.367Z,18.30
2018-05-27T17:30:03.370Z,18.40
2018-05-27T17:33:06.657Z,18.40
2018-05-27T17:36:10.260Z,18.50
2018-05-27T17:39:13.463Z,18.60
2018-05-27T17:42:16.766Z,18.70
2018-05-27T17:45:32.221Z,18.70
2018-05-27T17:48:50.424Z,18.60
2018-05-27T17:52:02.808Z,18.60
2018-05-27T17:55:23.261Z,18.60
2018-05-27T17:58:26.477Z,18.80
2018-05-27T18:01:29.654Z,18.70
2018-05-27T18:04:32.862Z,18.80
2018-05-27T18:07:36.202Z,18.80
2018-05-27T18:10:53.902Z,18.80
2018-05-27T18:13:57.097Z,18.70
2018-05-27T18:17:00.654Z,18.70
2018-05-27T18:20:05.252Z,18.70
2018-05-27T18:23:09.672Z,18.70
2018-05-27T18:26:13.266Z,18.70
2018-05-27T18:29:16.471Z,18.70
2018-05-27T18:32:19.701Z,18.70
2018-05-27T18:35:24.419Z,18.60
2018-05-27T18:38:28.613Z,18.60
2018-05-27T18:41:33.290Z,18.50
2018-05-27T18:44:42.600Z,18.40
2018-05-27T18:47:46.654Z,18.30
2018-05-27T18:50:50.012Z,18.30
2018-05-27T18:53:53.331Z,18.30
2018-05-27T18:56:56.548Z,18.20
2018-05-27T18:59:59.763Z,18.10
2018-05-27T19:03:04.394Z,18.00
2018-05-27T19:06:08.513Z,17.90
2018-05-27T19:09:12.531Z,17.80
2018-05-27T19:12:16.600Z,17.90
2018-05-27T19:15:19.960Z,17.90
2018-05-27T19:18:23.939Z,17.70
2018-05-27T19:21:27.262Z,17.70
2018-05-27T19:24:30.707Z,17.70
2018-05-27T19:27:34.177Z,17.60
2018-05-27T19:30:38.189Z,17.50
2018-05-27T19:33:41.593Z,17.50
2018-05-27T19:36:44.896Z,17.50
2018-05-27T19:39:52.155Z,17.40
2018-05-27T19:42:55.377Z,17.40
2018-05-27T19:45:59.611Z,17.40
2018-05-27T19:49:03.023Z,17.40
2018-05-27T19:52:07.047Z,17.20
2018-05-27T19:55:10.344Z,17.20
2018-05-27T19:58:15.421Z,17.10
2018-05-27T20:01:18.723Z,17.10
2018-05-27T20:04:22.682Z,17.10
2018-05-27T20:07:25.927Z,17.10
2018-05-27T20:10:29.504Z,17.00
2018-05-27T20:13:33.660Z,16.90
2018-05-27T20:16:37.472Z,17.00
2018-05-27T20:19:41.335Z,16.90
2018-05-27T20:22:44.673Z,16.90
2018-05-27T20:25:50.113Z,16.90
2018-05-27T20:28:54.101Z,16.80
2018-05-27T20:31:57.899Z,16.80
2018-05-27T20:35:01.125Z,16.80
2018-05-27T20:38:05.812Z,16.70
2018-05-27T20:41:09.058Z,16.80
2018-05-27T20:44:13.066Z,16.70
2018-05-27T20:47:17.143Z,16.60
2018-05-27T20:50:20.461Z,16.60
2018-05-27T20:53:23.704Z,16.60
2018-05-27T20:56:26.939Z,16.60
2018-05-27T20:59:30.158Z,16.60
2018-05-27T21:02:34.828Z,16.60
2018-05-27T21:05:38.177Z,16.60
2018-05-27T21:08:42.162Z,16.70
2018-05-27T21:11:55.934Z,16.70
2018-05-27T21:15:00.015Z,16.80
2018-05-27T21:18:03.353Z,16.90
2018-05-27T21:21:06.640Z,16.90
2018-05-27T21:24:09.853Z,16.80
2018-05-27T21:27:13.464Z,16.90
2018-05-27T21:30:16.732Z,16.80
2018-05-27T21:33:20.005Z,16.70
2018-05-27T21:36:23.327Z,16.60
2018-05-27T21:39:26.640Z,16.60
2018-05-27T21:42:29.901Z,16.60
2018-05-27T21:45:33.118Z,16.60
2018-05-27T21:48:37.551Z,16.60
2018-05-27T21:51:41.565Z,16.60
2018-05-27T21:54:46.540Z,16.50
2018-05-27T21:57:50.256Z,16.50
2018-05-27T22:00:53.503Z,16.50
2018-05-27T22:03:56.953Z,16.50
2018-05-27T22:07:01.039Z,16.60
2018-05-27T22:10:04.392Z,16.50
2018-05-27T22:13:07.693Z,16.50
2018-05-27T22:16:10.939Z,16.50
2018-05-27T22:19:14.676Z,16.60
2018-05-27T22:22:17.890Z,16.60
2018-05-27T22:25:21.601Z,16.60
2018-05-27T22:28:24.937Z,16.40
2018-05-27T22:31:28.145Z,16.40
2018-05-27T22:34:31.793Z,16.40
2018-05-27T22:37:36.429Z,16.40
2018-05-27T22:40:39.664Z,16.40
2018-05-27T22:43:43.682Z,16.40
2018-05-27T22:46:47.518Z,16.30
2018-05-27T22:49:50.778Z,16.40
2018-05-27T22:52:53.996Z,16.30
2018-05-27T22:55:57.206Z,16.40
2018-05-27T22:59:00.359Z,16.50
2018-05-27T23:02:04.262Z,16.40
2018-05-27T23:05:08.240Z,16.40
2018-05-27T23:08:12.255Z,16.50
2018-05-27T23:11:15.634Z,16.40
2018-05-27T23:14:18.855Z,16.20
2018-05-27T23:17:22.069Z,16.20
2018-05-27T23:20:25.291Z,16.30
2018-05-27T23:23:28.477Z,16.30
2018-05-27T23:26:32.621Z,16.10
2018-05-27T23:29:37.013Z,16.10
2018-05-27T23:32:40.196Z,16.10
2018-05-27T23:35:45.712Z,16.00
2018-05-27T23:38:48.903Z,16.10
2018-05-27T23:41:52.107Z,16.00
2018-05-27T23:44:55.640Z,16.00
2018-05-27T23:47:59.585Z,15.80
2018-05-27T23:51:02.882Z,15.80
2018-05-27T23:54:06.138Z,15.90
2018-05-27T23:57:10.235Z,16.00
